Marblehead, Massachusetts
Current Conditions -  °F | °C
As of 7:53 PM on Friday 24 Oct 2014 (Local Time) from KBVY Reporting Station
Overcast Overcast  
Wind Chill: 50°   Ceiling: 3900
Heat Index: 50°   Visibility: 10mi
Dew Point: 42°   Wind: 7mph
Humidity: 74%   Direction: 310°NW
Pressure: 29.72"   Gusts: NA
Location:  42.5°N, 70.86°W
Report Text: KBVY 242353Z 31006KT 10SM OVC039 10/06 A2972 RMK AO2 SLP059 T01000056 10111 20100 51013
Loading
Personal Weather Stations






























Interactive Weather Map
Tropical Storm Tracking
New forecast layout! Learn more

10-Day Weather Forecast

Advertisements
Track Severe Weather on mobile